Airfield :







YOU CAN JOIN US ON...

 
LOGIN :

Register | Disclaimer

   EN    FR    IT 

 









Legend :    VFR   Marginal VFR   IFR   Intensive IFR   Very Intensive IFR
Visi :
Ceiling :
>= 8 km
>= 3000ft
5 to 8 km
1000 to 3000 ft
1500m to 5 km
500 to 1000 ft
800 to 1500m
200 to 500 ft
< 800m
< 200 ft
Symbols :   Thunderstorms  Fog  Heavy snow  Heavy precipitations  Wind > 20 kt






- Airport Elevation : 288 ft


KLEW - Auburn Lewiston Municipal

CURRENT METAR :
  • 092031Z AUTO 02003KT 1/4SM -RA FG OVC003 03/02 A2992 RMK AO2 P0002

EXPIRED METARs :
  • 092019Z AUTO 02004KT 1/2SM -RA FG OVC003 03/03 A2993 RMK AO2 P0001
  • 092007Z AUTO 36003KT 1SM -RA BR OVC003 03/03 A2994 RMK AO2 P0001
  • 091956Z AUTO 02003KT 1 1/4SM -RA BR OVC003 03/03 A2994 RMK AO2 SLP148 P0013 T00280028
  • 091948Z AUTO 02003KT 1 1/2SM RA BR OVC003 03/03 A2994 RMK AO2 VIS 3/4V3 P0012
  • 091938Z AUTO 00000KT 2SM -RA BR OVC003 03/03 A2995 RMK AO2 P0010
  • 091920Z AUTO 01003KT 1 1/4SM RA BR OVC003 03/02 A2997 RMK AO2 VIS 1/2V4 CIG 002V007 P0007
  • 091917Z AUTO 02005KT 3/4SM +RA BR OVC003 03/02 A2997 RMK AO2 VIS 1/2V4 CIG 002V007 PRESFR P0007
  • 091902Z AUTO 36005KT 2SM RA BR OVC003 03/02 A3000 RMK AO2 CIG 002V006 P0001
  • 091837Z AUTO 02003KT 1/2SM RA FG BKN003 OVC007 03/02 A3003 RMK AO2 P0005
  • 091820Z AUTO 00000KT 1 3/4SM RA BR OVC003 03/02 A3005 RMK AO2 P0002
  • 091756Z AUTO 09004KT 4SM -RA BR OVC003 03/02 A3006 RMK AO2 SLP190 P0005 60005 T00280022 10033 20006 58033

TAF N/A



MET'MAP, your aeronautical weather chart ! - Copyright ORBIFLY December 2007 - Disclaimer

ORBIFLY MET'MAP TEAM :

Programming & Development : Alexandra Zaïnal
Concept & original design : Baudouin d'Aumeries
Assistance for programming : Marc-Olivier Méhu
Technical & hardware support : Manuel Goepfert

Contact : metmap@orbifly.com




SOURCES & CREDITS :

   NOAA